createdAt,value
2018-09-11T00:02:12.645Z,84.10
2018-09-11T00:04:41.137Z,84.10
2018-09-11T00:07:09.660Z,84.50
2018-09-11T00:09:38.147Z,84.50
2018-09-11T00:12:06.680Z,85.10
2018-09-11T00:14:35.127Z,85.30
2018-09-11T00:17:03.698Z,86.10
2018-09-11T00:19:32.280Z,85.00
2018-09-11T00:22:00.814Z,85.50
2018-09-11T00:24:29.248Z,85.60
2018-09-11T00:26:57.731Z,85.00
2018-09-11T00:29:26.201Z,84.90
2018-09-11T00:31:54.767Z,84.60
2018-09-11T00:34:23.195Z,85.10
2018-09-11T00:36:51.674Z,85.30
2018-09-11T00:39:20.107Z,85.50
2018-09-11T00:41:48.635Z,85.70
2018-09-11T00:44:17.055Z,86.20
2018-09-11T00:46:45.591Z,86.10
2018-09-11T00:49:14.021Z,86.40
2018-09-11T00:51:42.554Z,86.20
2018-09-11T00:54:10.989Z,86.40
2018-09-11T00:56:39.462Z,85.90
2018-09-11T00:59:07.918Z,86.70
2018-09-11T01:01:36.355Z,86.80
2018-09-11T01:04:04.853Z,87.10
2018-09-11T01:06:33.303Z,87.60
2018-09-11T01:09:01.759Z,87.80
2018-09-11T01:11:30.211Z,87.80
2018-09-11T01:13:58.664Z,87.90
2018-09-11T01:16:27.148Z,87.90
2018-09-11T01:18:55.658Z,87.90
2018-09-11T01:21:24.212Z,88.00
2018-09-11T01:23:52.790Z,88.10
2018-09-11T01:26:21.253Z,88.30
2018-09-11T01:28:49.902Z,89.20
2018-09-11T01:31:18.357Z,89.50
2018-09-11T01:33:46.832Z,90.10
2018-09-11T01:36:15.313Z,89.60
2018-09-11T01:38:43.782Z,89.50
2018-09-11T01:41:12.262Z,89.50
2018-09-11T01:43:40.732Z,89.30
2018-09-11T01:46:09.402Z,89.20
2018-09-11T01:48:37.892Z,89.10
2018-09-11T01:51:06.675Z,88.90
2018-09-11T01:53:35.159Z,89.20
2018-09-11T01:56:03.895Z,89.60
2018-09-11T01:58:32.393Z,89.80
2018-09-11T02:01:00.838Z,89.70
2018-09-11T02:03:29.304Z,89.80
2018-09-11T02:05:57.753Z,90.00
2018-09-11T02:08:26.561Z,90.10
2018-09-11T02:10:55.042Z,90.10
2018-09-11T02:13:23.499Z,90.10
2018-09-11T02:15:51.977Z,89.70
2018-09-11T02:18:20.446Z,89.50
2018-09-11T02:20:48.949Z,89.60
2018-09-11T02:23:17.414Z,89.70
2018-09-11T02:25:45.898Z,90.00
2018-09-11T02:28:14.333Z,90.10
2018-09-11T02:30:42.797Z,90.30
2018-09-11T02:33:11.226Z,90.40
2018-09-11T02:35:39.746Z,90.50
2018-09-11T02:38:08.162Z,90.80
2018-09-11T02:40:36.632Z,90.80
2018-09-11T02:43:05.093Z,90.90
2018-09-11T02:45:33.577Z,91.10
2018-09-11T02:48:02.047Z,91.00
2018-09-11T02:50:30.506Z,91.20
2018-09-11T02:52:58.974Z,91.20
2018-09-11T02:55:27.560Z,91.30
2018-09-11T02:57:56.016Z,91.60
2018-09-11T03:00:24.459Z,91.60
2018-09-11T03:02:53.127Z,91.80
2018-09-11T03:05:21.574Z,91.90
2018-09-11T03:07:50.057Z,91.90
2018-09-11T03:10:18.494Z,91.80
2018-09-11T03:12:46.974Z,91.80
2018-09-11T03:15:15.423Z,91.80
2018-09-11T03:17:43.879Z,91.90
2018-09-11T03:20:12.354Z,91.90
2018-09-11T03:22:40.832Z,92.00
2018-09-11T03:25:09.411Z,92.00
2018-09-11T03:27:37.989Z,91.90
2018-09-11T03:30:07.365Z,91.80
2018-09-11T03:32:35.829Z,91.80
2018-09-11T03:35:04.418Z,92.00
2018-09-11T03:37:32.891Z,92.20
2018-09-11T03:40:01.345Z,92.40
2018-09-11T03:42:29.792Z,92.80
2018-09-11T03:44:58.263Z,93.00
2018-09-11T03:47:26.708Z,93.20
2018-09-11T03:49:55.206Z,93.20
2018-09-11T03:52:23.752Z,93.10
2018-09-11T03:54:52.217Z,93.20
2018-09-11T03:57:20.671Z,93.30
2018-09-11T03:59:49.199Z,93.40
2018-09-11T04:02:17.634Z,93.40
2018-09-11T04:04:46.102Z,93.40
2018-09-11T04:07:14.567Z,93.40
2018-09-11T04:09:43.131Z,93.20
2018-09-11T04:12:11.771Z,93.30
2018-09-11T04:14:40.352Z,93.20
2018-09-11T04:17:08.779Z,93.30
2018-09-11T04:19:37.258Z,93.40
2018-09-11T04:22:05.766Z,93.80
2018-09-11T04:24:34.197Z,94.00
2018-09-11T04:27:02.658Z,94.10
2018-09-11T04:29:31.107Z,94.30
2018-09-11T04:31:59.587Z,94.60
2018-09-11T04:34:28.040Z,94.70
2018-09-11T04:36:56.513Z,94.60
2018-09-11T04:39:24.943Z,94.70
2018-09-11T04:41:53.404Z,94.70
2018-09-11T04:44:21.867Z,94.50
2018-09-11T04:46:50.339Z,94.40
2018-09-11T04:49:18.785Z,94.30
2018-09-11T04:51:47.277Z,94.20
2018-09-11T04:54:15.710Z,94.20
2018-09-11T04:56:44.185Z,93.90
2018-09-11T04:59:12.618Z,93.90
2018-09-11T05:01:41.419Z,93.90
2018-09-11T05:04:09.991Z,94.50
2018-09-11T05:06:38.438Z,94.90
2018-09-11T05:09:09.004Z,94.90
2018-09-11T05:11:37.439Z,94.90
2018-09-11T05:14:05.976Z,94.80
2018-09-11T05:16:34.432Z,94.70
2018-09-11T05:19:02.931Z,94.60
2018-09-11T05:21:32.113Z,94.50
2018-09-11T05:24:00.556Z,94.50
2018-09-11T05:26:28.980Z,94.40
2018-09-11T05:28:57.452Z,94.40
2018-09-11T05:31:25.914Z,94.50
2018-09-11T05:33:54.446Z,94.50
2018-09-11T05:36:22.885Z,94.50
2018-09-11T05:38:51.426Z,94.50
2018-09-11T05:41:19.897Z,94.60
2018-09-11T05:43:48.439Z,94.80
2018-09-11T05:46:17.034Z,94.80
2018-09-11T05:48:45.798Z,94.80
2018-09-11T05:51:14.281Z,94.70
2018-09-11T05:53:42.743Z,94.80
2018-09-11T05:56:11.214Z,94.60
2018-09-11T05:58:39.650Z,94.40
2018-09-11T06:01:08.124Z,94.30
2018-09-11T06:03:36.595Z,94.20
2018-09-11T06:06:05.109Z,94.10
2018-09-11T06:08:33.543Z,94.20
2018-09-11T06:11:02.040Z,94.30
2018-09-11T06:13:30.501Z,94.50
2018-09-11T06:15:59.085Z,94.40
2018-09-11T06:18:27.734Z,94.40
2018-09-11T06:20:56.265Z,94.50
2018-09-11T06:23:24.736Z,94.50
2018-09-11T06:25:53.285Z,94.50
2018-09-11T06:28:21.695Z,94.40
2018-09-11T06:30:50.148Z,94.30
2018-09-11T06:33:18.692Z,94.20
2018-09-11T06:35:47.142Z,94.00
2018-09-11T06:38:16.334Z,93.80
2018-09-11T06:40:44.914Z,93.80
2018-09-11T06:43:13.455Z,93.70
2018-09-11T06:45:41.894Z,93.50
2018-09-11T06:48:10.394Z,93.30
2018-09-11T06:50:38.821Z,93.10
2018-09-11T06:53:07.407Z,93.00
2018-09-11T06:55:35.851Z,92.90
2018-09-11T06:58:04.355Z,92.80
2018-09-11T07:00:32.818Z,92.60
2018-09-11T07:03:01.283Z,92.50
2018-09-11T07:05:29.733Z,92.40
2018-09-11T07:07:58.199Z,92.20
2018-09-11T07:10:26.785Z,91.90
2018-09-11T07:12:55.259Z,91.70
2018-09-11T07:15:23.709Z,91.40
2018-09-11T07:17:52.169Z,91.20
2018-09-11T07:20:20.888Z,91.00
2018-09-11T07:22:49.174Z,90.90
2018-09-11T07:25:17.621Z,90.70
2018-09-11T07:27:46.103Z,90.40
2018-09-11T07:30:14.706Z,89.90
2018-09-11T07:32:43.159Z,89.40
2018-09-11T07:35:11.646Z,89.30
2018-09-11T07:37:40.133Z,89.00
2018-09-11T07:40:08.915Z,87.10
2018-09-11T07:42:37.375Z,87.90
2018-09-11T07:45:06.005Z,87.70
2018-09-11T07:47:34.499Z,87.10
2018-09-11T07:50:02.991Z,86.40
2018-09-11T07:52:31.531Z,85.40
2018-09-11T07:55:00.000Z,85.50
2018-09-11T07:57:28.697Z,85.80
2018-09-11T07:59:57.141Z,84.90
2018-09-11T08:02:25.579Z,84.70
2018-09-11T08:04:54.111Z,82.90
2018-09-11T08:07:22.555Z,82.80
2018-09-11T08:09:51.049Z,82.50
2018-09-11T08:12:19.492Z,82.30
2018-09-11T08:14:47.992Z,81.90
2018-09-11T08:17:16.433Z,80.50
2018-09-11T08:19:45.025Z,81.10
2018-09-11T08:22:13.380Z,80.20
2018-09-11T08:24:41.849Z,79.70
2018-09-11T08:27:10.300Z,78.80
2018-09-11T08:29:38.777Z,77.50
2018-09-11T08:32:07.228Z,77.00
2018-09-11T08:34:35.716Z,76.80
2018-09-11T08:37:04.184Z,76.00
2018-09-11T08:39:32.781Z,74.80
2018-09-11T08:42:01.260Z,74.70
2018-09-11T08:44:29.723Z,73.70
2018-09-11T08:46:58.150Z,72.10
2018-09-11T08:49:26.970Z,70.30
2018-09-11T08:51:55.402Z,69.30
2018-09-11T08:54:23.837Z,69.30
2018-09-11T08:56:52.289Z,67.80
2018-09-11T08:59:20.726Z,65.10
2018-09-11T09:01:49.307Z,63.10
2018-09-11T09:04:17.803Z,63.90
2018-09-11T09:06:46.306Z,63.80
2018-09-11T09:09:14.758Z,62.10
2018-09-11T09:11:43.245Z,60.50
2018-09-11T09:14:11.771Z,59.70
2018-09-11T09:16:40.289Z,59.00
2018-09-11T09:19:08.806Z,58.40
2018-09-11T09:21:37.291Z,57.60
2018-09-11T09:24:05.848Z,57.70
2018-09-11T09:26:34.303Z,57.80
2018-09-11T09:29:02.729Z,56.00
2018-09-11T09:31:31.228Z,56.20
2018-09-11T09:33:59.678Z,55.80
2018-09-11T09:36:28.278Z,55.90
2018-09-11T09:38:56.696Z,55.10
2018-09-11T09:41:25.163Z,54.40
2018-09-11T09:43:53.654Z,52.90
2018-09-11T09:46:22.076Z,52.40
2018-09-11T09:48:50.515Z,51.40
2018-09-11T09:51:19.013Z,50.10
2018-09-11T09:53:47.464Z,50.50
2018-09-11T09:56:15.935Z,50.80
2018-09-11T09:58:44.385Z,49.60
2018-09-11T10:01:18.246Z,49.70
2018-09-11T10:03:46.695Z,48.60
2018-09-11T10:06:15.159Z,48.10
2018-09-11T10:08:43.718Z,47.80
2018-09-11T10:11:12.213Z,47.60
2018-09-11T10:13:40.680Z,46.70
2018-09-11T10:16:09.161Z,45.70
2018-09-11T10:18:37.637Z,45.10
2018-09-11T10:21:06.481Z,43.20
2018-09-11T10:23:34.932Z,43.70
2018-09-11T10:26:03.394Z,42.60
2018-09-11T10:28:31.834Z,43.70
2018-09-11T10:31:00.378Z,43.40
2018-09-11T10:33:28.827Z,44.40
2018-09-11T10:35:57.397Z,43.60
2018-09-11T10:38:25.853Z,43.10
2018-09-11T10:40:54.415Z,42.40
2018-09-11T10:43:22.872Z,42.10
2018-09-11T10:45:51.343Z,41.80
2018-09-11T10:48:19.914Z,39.70
2018-09-11T10:50:48.447Z,40.30
2018-09-11T10:53:17.022Z,40.80
2018-09-11T10:55:45.490Z,41.40
2018-09-11T10:58:14.054Z,41.20
2018-09-11T11:00:42.537Z,39.70
2018-09-11T11:03:11.042Z,39.90
2018-09-11T11:05:39.665Z,39.10
2018-09-11T11:08:08.126Z,38.10
2018-09-11T11:10:36.635Z,38.20
2018-09-11T11:13:05.134Z,38.20
2018-09-11T11:15:33.586Z,37.70
2018-09-11T11:18:02.087Z,37.80
2018-09-11T11:20:30.674Z,38.00
2018-09-11T11:22:59.190Z,36.30
2018-09-11T11:25:27.629Z,36.30
2018-09-11T11:27:56.231Z,36.20
2018-09-11T11:30:24.698Z,36.20
2018-09-11T11:32:53.227Z,36.20
2018-09-11T11:35:21.662Z,35.70
2018-09-11T11:37:50.147Z,36.00
2018-09-11T11:40:18.610Z,36.10
2018-09-11T11:42:47.122Z,36.00
2018-09-11T11:45:15.559Z,35.50
2018-09-11T11:47:44.121Z,34.00
2018-09-11T11:50:12.573Z,33.10
2018-09-11T11:52:41.099Z,32.50
2018-09-11T11:55:09.674Z,32.40
2018-09-11T11:57:38.070Z,32.70
2018-09-11T12:00:06.616Z,32.80
2018-09-11T12:02:35.128Z,33.00
2018-09-11T12:05:03.623Z,32.70
2018-09-11T12:07:32.119Z,33.10
2018-09-11T12:10:00.561Z,34.00
2018-09-11T12:12:29.244Z,33.50
2018-09-11T12:14:57.787Z,34.20
2018-09-11T12:17:26.444Z,33.80
2018-09-11T12:19:54.943Z,34.00
2018-09-11T12:22:23.580Z,33.20
2018-09-11T12:24:52.038Z,32.80
2018-09-11T12:27:20.546Z,32.10
2018-09-11T12:29:49.030Z,32.70
2018-09-11T12:32:17.703Z,31.70
2018-09-11T12:34:46.154Z,30.90
2018-09-11T12:37:14.583Z,30.80
2018-09-11T12:39:43.058Z,30.70
2018-09-11T12:42:11.902Z,30.20
2018-09-11T12:44:40.377Z,29.70
2018-09-11T12:47:10.457Z,29.20
2018-09-11T12:49:39.082Z,29.00
2018-09-11T12:52:07.593Z,30.00
2018-09-11T12:54:36.912Z,30.60
2018-09-11T12:57:05.546Z,29.80
2018-09-11T12:59:34.050Z,29.60
2018-09-11T13:02:02.513Z,29.20
2018-09-11T13:04:30.980Z,29.50
2018-09-11T13:06:59.465Z,30.50
2018-09-11T13:09:27.920Z,31.00
2018-09-11T13:11:56.428Z,30.30
2018-09-11T13:14:24.883Z,30.50
2018-09-11T13:16:53.395Z,29.60
2018-09-11T13:19:21.907Z,29.60
2018-09-11T13:21:50.390Z,29.60
2018-09-11T13:24:18.850Z,30.40
2018-09-11T13:26:47.364Z,29.90
2018-09-11T13:29:16.408Z,30.00
2018-09-11T13:31:45.593Z,30.40
2018-09-11T13:34:14.471Z,30.30
2018-09-11T13:36:43.204Z,30.40
2018-09-11T13:39:11.844Z,30.40
2018-09-11T13:41:40.778Z,30.00
2018-09-11T13:44:09.712Z,30.00
2018-09-11T13:46:38.664Z,30.50
2018-09-11T13:49:07.125Z,29.50
2018-09-11T13:51:35.610Z,29.00
2018-09-11T13:54:04.101Z,29.50
2018-09-11T13:56:32.578Z,30.10
2018-09-11T13:59:01.031Z,30.00
2018-09-11T14:01:29.515Z,29.20
2018-09-11T14:03:57.959Z,29.60
2018-09-11T14:06:26.452Z,28.80
2018-09-11T14:08:54.894Z,29.10
2018-09-11T14:11:23.635Z,29.60
2018-09-11T14:13:52.092Z,28.90
2018-09-11T14:16:20.566Z,28.60
2018-09-11T14:18:49.073Z,28.90
2018-09-11T14:21:17.637Z,29.20
2018-09-11T14:23:46.117Z,29.30
2018-09-11T14:26:14.620Z,29.40
2018-09-11T14:28:43.067Z,28.20
2018-09-11T14:31:11.565Z,28.40
2018-09-11T14:33:40.042Z,28.40
2018-09-11T14:36:08.546Z,27.60
2018-09-11T14:38:37.085Z,27.20
2018-09-11T14:41:05.636Z,27.30
2018-09-11T14:43:34.075Z,27.50
2018-09-11T14:46:02.998Z,27.30
2018-09-11T14:48:31.446Z,27.30
2018-09-11T14:50:59.952Z,27.50
2018-09-11T14:53:28.413Z,27.00
2018-09-11T14:55:56.910Z,27.20
2018-09-11T14:58:25.368Z,27.30
2018-09-11T15:00:54.293Z,27.60
2018-09-11T15:03:22.774Z,27.90
2018-09-11T15:05:51.294Z,27.50
2018-09-11T15:08:19.836Z,27.90
2018-09-11T15:10:48.421Z,27.30
2018-09-11T15:13:16.874Z,27.10
2018-09-11T15:15:45.469Z,27.80
2018-09-11T15:18:14.014Z,27.60
2018-09-11T15:20:42.523Z,27.60
2018-09-11T15:23:12.177Z,28.00
2018-09-11T15:25:40.632Z,28.90
2018-09-11T15:28:09.267Z,28.90
2018-09-11T15:30:37.802Z,28.70
2018-09-11T15:33:06.655Z,28.70
2018-09-11T15:35:35.382Z,29.30
2018-09-11T15:38:04.147Z,29.40
2018-09-11T15:40:32.576Z,29.20
2018-09-11T15:43:01.068Z,29.90
2018-09-11T15:45:29.503Z,30.00
2018-09-11T15:47:57.982Z,30.00
2018-09-11T15:50:26.443Z,30.00
2018-09-11T15:52:54.941Z,30.00
2018-09-11T15:55:23.523Z,30.50
2018-09-11T15:57:51.996Z,31.00
2018-09-11T16:00:20.483Z,31.30
2018-09-11T16:02:48.978Z,31.70
2018-09-11T16:05:17.442Z,31.80
2018-09-11T16:07:45.911Z,32.60
2018-09-11T16:10:14.387Z,32.70
2018-09-11T16:12:42.866Z,33.00
2018-09-11T16:15:11.622Z,33.50
2018-09-11T16:17:40.308Z,33.00
2018-09-11T16:20:08.984Z,33.40
2018-09-11T16:22:37.859Z,33.00
2018-09-11T16:25:06.602Z,33.40
2018-09-11T16:27:35.057Z,33.50
2018-09-11T16:30:03.654Z,34.00
2018-09-11T16:32:32.057Z,34.30
2018-09-11T16:35:00.599Z,34.00
2018-09-11T16:37:29.078Z,34.20
2018-09-11T16:39:57.803Z,34.40
2018-09-11T16:42:26.290Z,34.60
2018-09-11T16:44:54.712Z,34.80
2018-09-11T16:47:23.197Z,35.00
2018-09-11T16:49:51.638Z,34.70
2018-09-11T16:52:20.251Z,34.50
2018-09-11T16:54:48.692Z,34.50
2018-09-11T16:57:17.155Z,34.90
2018-09-11T16:59:45.625Z,34.70
2018-09-11T17:02:14.178Z,35.30
2018-09-11T17:04:42.561Z,35.00
2018-09-11T17:07:10.989Z,35.00
2018-09-11T17:09:39.440Z,35.20
2018-09-11T17:12:07.884Z,35.50
2018-09-11T17:14:36.358Z,35.60
2018-09-11T17:17:04.824Z,35.90
2018-09-11T17:19:33.317Z,36.30
2018-09-11T17:22:01.820Z,36.60
2018-09-11T17:24:30.285Z,36.80
2018-09-11T17:26:58.736Z,37.30
2018-09-11T17:29:27.219Z,37.50
2018-09-11T17:31:55.888Z,37.90
2018-09-11T17:34:24.367Z,38.30
2018-09-11T17:36:52.813Z,38.40
2018-09-11T17:39:21.294Z,38.60
2018-09-11T17:41:51.155Z,39.00
2018-09-11T17:44:19.723Z,39.30
2018-09-11T17:46:48.158Z,39.70
2018-09-11T17:49:16.701Z,40.00
2018-09-11T17:51:45.067Z,40.90
2018-09-11T17:54:13.557Z,41.30
2018-09-11T17:56:41.994Z,41.80
2018-09-11T17:59:10.481Z,42.10
2018-09-11T18:01:38.922Z,42.50
2018-09-11T18:04:07.438Z,43.00
2018-09-11T18:06:35.879Z,43.30
2018-09-11T18:09:06.111Z,43.50
2018-09-11T18:11:34.950Z,44.00
2018-09-11T18:14:03.459Z,44.30
2018-09-11T18:16:31.914Z,44.70
2018-09-11T18:19:00.428Z,45.20
2018-09-11T18:21:29.705Z,45.50
2018-09-11T18:23:58.429Z,45.60
2018-09-11T18:26:26.947Z,46.00
2018-09-11T18:28:55.414Z,46.10
2018-09-11T18:31:23.859Z,46.30
2018-09-11T18:33:53.390Z,46.60
2018-09-11T18:36:21.829Z,46.90
2018-09-11T18:38:50.353Z,47.00
2018-09-11T18:41:19.203Z,47.40
2018-09-11T18:43:48.613Z,47.80
2018-09-11T18:46:17.049Z,47.90
2018-09-11T18:48:45.958Z,48.00
2018-09-11T18:51:17.601Z,48.30
2018-09-11T18:53:46.338Z,48.60
2018-09-11T18:56:14.776Z,48.80
2018-09-11T18:58:43.621Z,49.20
2018-09-11T19:01:12.258Z,49.60
2018-09-11T19:03:41.537Z,50.10
2018-09-11T19:06:09.994Z,50.40
2018-09-11T19:08:38.561Z,50.60
2018-09-11T19:11:07.332Z,51.10
2018-09-11T19:13:35.764Z,51.80
2018-09-11T19:16:04.282Z,52.10
2018-09-11T19:18:32.846Z,52.20
2018-09-11T19:21:01.315Z,52.40
2018-09-11T19:23:29.786Z,52.60
2018-09-11T19:25:58.226Z,53.30
2018-09-11T19:28:26.714Z,52.90
2018-09-11T19:30:55.145Z,52.90
2018-09-11T19:33:23.614Z,53.40
2018-09-11T19:35:52.059Z,53.60
2018-09-11T19:38:20.594Z,53.70
2018-09-11T19:40:49.057Z,53.90
2018-09-11T19:43:17.844Z,54.20
2018-09-11T19:45:46.715Z,54.40
2018-09-11T19:48:15.818Z,54.80
2018-09-11T19:50:44.262Z,54.80
2018-09-11T19:53:14.593Z,54.80
2018-09-11T19:55:43.303Z,54.90
2018-09-11T19:58:12.187Z,55.20
2018-09-11T20:00:41.245Z,55.50
2018-09-11T20:03:10.451Z,55.80
2018-09-11T20:05:38.926Z,55.90
2018-09-11T20:08:07.951Z,55.70
2018-09-11T20:10:36.426Z,56.30
2018-09-11T20:13:05.132Z,56.60
2018-09-11T20:15:33.622Z,57.00
2018-09-11T20:18:03.021Z,57.10
2018-09-11T20:20:31.532Z,57.40
2018-09-11T20:22:59.979Z,57.50
2018-09-11T20:25:28.492Z,57.50
2018-09-11T20:27:56.945Z,58.50
2018-09-11T20:30:25.422Z,58.70
2018-09-11T20:32:53.869Z,58.90
2018-09-11T20:35:22.366Z,59.50
2018-09-11T20:37:50.811Z,59.80
2018-09-11T20:40:20.308Z,60.20
2018-09-11T20:42:48.747Z,60.30
2018-09-11T20:45:17.266Z,60.60
2018-09-11T20:47:45.719Z,60.40
2018-09-11T20:50:14.197Z,60.50
2018-09-11T20:52:42.656Z,61.10
2018-09-11T20:55:11.142Z,61.10
2018-09-11T20:57:39.619Z,61.10
2018-09-11T21:00:08.218Z,61.30
2018-09-11T21:02:36.652Z,61.40
2018-09-11T21:05:05.178Z,61.50
2018-09-11T21:07:33.672Z,61.40
2018-09-11T21:10:02.116Z,61.10
2018-09-11T21:12:30.555Z,61.00
2018-09-11T21:14:58.985Z,61.30
2018-09-11T21:17:27.465Z,61.60
2018-09-11T21:19:55.951Z,61.60
2018-09-11T21:22:24.474Z,61.90
2018-09-11T21:24:52.935Z,62.30
2018-09-11T21:27:21.399Z,62.80
2018-09-11T21:29:49.838Z,62.70
2018-09-11T21:32:18.491Z,63.00
2018-09-11T21:34:46.919Z,63.70
2018-09-11T21:37:15.401Z,64.20
2018-09-11T21:39:43.839Z,64.60
2018-09-11T21:42:12.343Z,65.40
2018-09-11T21:44:40.867Z,65.60
2018-09-11T21:47:09.360Z,66.20
2018-09-11T21:49:37.897Z,66.20
2018-09-11T21:52:06.782Z,66.40
2018-09-11T21:54:35.185Z,66.20
2018-09-11T21:57:03.722Z,66.10
2018-09-11T21:59:32.265Z,66.00
2018-09-11T22:02:00.747Z,66.00
2018-09-11T22:04:29.225Z,66.60
2018-09-11T22:06:57.722Z,67.00
2018-09-11T22:09:26.214Z,67.10
2018-09-11T22:11:54.737Z,66.50
2018-09-11T22:14:23.177Z,67.20
2018-09-11T22:16:51.691Z,67.30
2018-09-11T22:19:20.248Z,67.40
2018-09-11T22:21:48.706Z,67.70
2018-09-11T22:24:17.233Z,68.90
2018-09-11T22:26:45.725Z,69.60
2018-09-11T22:29:14.196Z,69.90
2018-09-11T22:31:42.662Z,70.20
2018-09-11T22:34:11.120Z,71.20
2018-09-11T22:36:39.609Z,70.80
2018-09-11T22:39:08.733Z,71.30
2018-09-11T22:41:37.488Z,71.70
2018-09-11T22:44:05.995Z,71.50
2018-09-11T22:46:34.518Z,71.80
2018-09-11T22:49:02.957Z,72.00
2018-09-11T22:51:31.446Z,72.10
2018-09-11T22:53:59.883Z,72.60
2018-09-11T22:56:28.370Z,72.60
2018-09-11T22:58:56.871Z,73.10
2018-09-11T23:01:25.488Z,73.00
2018-09-11T23:03:53.930Z,72.80
2018-09-11T23:06:22.836Z,72.90
2018-09-11T23:08:51.304Z,73.20
2018-09-11T23:11:19.760Z,73.70
2018-09-11T23:13:48.260Z,74.40
2018-09-11T23:16:16.694Z,74.20
2018-09-11T23:18:45.249Z,73.90
2018-09-11T23:21:13.711Z,73.60
2018-09-11T23:23:42.202Z,73.40
2018-09-11T23:26:10.646Z,73.50
2018-09-11T23:28:39.203Z,74.00
2018-09-11T23:31:07.863Z,74.40
2018-09-11T23:33:36.366Z,74.70
2018-09-11T23:36:04.850Z,75.00
2018-09-11T23:38:33.380Z,75.80
2018-09-11T23:41:01.897Z,75.60
2018-09-11T23:43:30.402Z,76.00
2018-09-11T23:45:58.892Z,76.10
2018-09-11T23:48:27.381Z,76.70
2018-09-11T23:50:55.884Z,76.80
2018-09-11T23:53:24.378Z,77.10
2018-09-11T23:55:52.861Z,77.20
2018-09-11T23:58:21.372Z,77.50
